Time,TemperatureF,DewpointF,PressureIn,WindDirection,WindDirectionDegrees,WindSpeedMPH,WindSpeedGustMPH,Humidity,HourlyPrecipIn,Conditions,Clouds,dailyrainin,SoftwareType,DateUTC
2013-04-27 00:09:00,51.1,45.0,30.13,South,186,0.0,-999.0,81,-99.99,,,0.00,weatherlink.com 1.10,2013-04-27 07:09:00,
2013-04-27 00:24:00,50.6,45.0,30.13,South,186,0.0,-999.0,81,-99.99,,,0.00,weatherlink.com 1.10,2013-04-27 07:24:00,
2013-04-27 00:39:00,50.2,45.0,30.13,South,186,0.0,-999.0,82,-99.99,,,0.00,weatherlink.com 1.10,2013-04-27 07:39:00,
2013-04-27 00:54:00,49.9,45.0,30.13,South,186,0.0,-999.0,83,-99.99,,,0.00,weatherlink.com 1.10,2013-04-27 07:54:00,
2013-04-27 01:09:00,49.7,45.0,30.13,South,186,1.0,-999.0,83,-99.99,,,0.00,weatherlink.com 1.10,2013-04-27 08:09:00,
2013-04-27 01:24:00,49.2,45.0,30.13,South,186,0.0,-999.0,84,-99.99,,,0.00,weatherlink.com 1.10,2013-04-27 08:24:00,
2013-04-27 01:39:00,48.6,44.0,30.14,South,186,0.0,-999.0,84,-99.99,,,0.00,weatherlink.com 1.10,2013-04-27 08:39:00,
2013-04-27 01:54:00,48.3,44.0,30.14,South,186,0.0,-999.0,85,-99.99,,,0.00,weatherlink.com 1.10,2013-04-27 08:54:00,
2013-04-27 02:09:00,48.0,44.0,30.14,South,186,1.0,-999.0,86,-99.99,,,0.00,weatherlink.com 1.10,2013-04-27 09:09:00,
2013-04-27 02:24:00,47.7,44.0,30.14,South,186,0.0,-999.0,87,-99.99,,,0.00,weatherlink.com 1.10,2013-04-27 09:24:00,
2013-04-27 02:39:00,47.4,44.0,30.15,South,186,0.0,-999.0,87,-99.99,,,0.00,weatherlink.com 1.10,2013-04-27 09:39:00,
2013-04-27 02:54:00,47.3,44.0,30.15,South,186,0.0,-999.0,87,-99.99,,,0.00,weatherlink.com 1.10,2013-04-27 09:54:00,
2013-04-27 03:09:00,47.1,44.0,30.15,South,186,0.0,-999.0,87,-99.99,,,0.00,weatherlink.com 1.10,2013-04-27 10:09:00,
2013-04-27 03:24:00,46.8,43.0,30.15,South,186,0.0,-999.0,87,-99.99,,,0.00,weatherlink.com 1.10,2013-04-27 10:24:00,
2013-04-27 03:39:00,46.5,43.0,30.15,South,186,1.0,-999.0,88,-99.99,,,0.00,weatherlink.com 1.10,2013-04-27 10:39:00,
2013-04-27 03:54:00,46.3,43.0,30.15,South,186,0.0,-999.0,88,-99.99,,,0.00,weatherlink.com 1.10,2013-04-27 10:54:00,
2013-04-27 04:09:00,46.0,43.0,30.15,South,186,0.0,-999.0,88,-99.99,,,0.00,weatherlink.com 1.10,2013-04-27 11:09:00,
2013-04-27 04:24:00,45.7,42.0,30.16,South,186,0.0,-999.0,88,-99.99,,,0.00,weatherlink.com 1.10,2013-04-27 11:24:00,
2013-04-27 04:39:00,45.4,42.0,30.16,South,186,0.0,-999.0,89,-99.99,,,0.00,weatherlink.com 1.10,2013-04-27 11:39:00,
2013-04-27 04:54:00,45.1,42.0,30.16,South,186,0.0,-999.0,89,-99.99,,,0.00,weatherlink.com 1.10,2013-04-27 11:54:00,
2013-04-27 05:09:00,44.7,42.0,30.16,South,186,0.0,-999.0,90,-99.99,,,0.00,weatherlink.com 1.10,2013-04-27 12:09:00,
2013-04-27 05:24:00,44.5,42.0,30.17,South,186,0.0,-999.0,90,-99.99,,,0.00,weatherlink.com 1.10,2013-04-27 12:24:00,
2013-04-27 05:39:00,44.3,42.0,30.17,South,186,0.0,-999.0,90,-99.99,,,0.00,weatherlink.com 1.10,2013-04-27 12:39:00,
2013-04-27 05:54:00,44.4,42.0,30.17,South,186,0.0,-999.0,90,-99.99,,,0.00,weatherlink.com 1.10,2013-04-27 12:54:00,
2013-04-27 06:09:00,44.4,42.0,30.17,South,186,0.0,-999.0,90,-99.99,,,0.00,weatherlink.com 1.10,2013-04-27 13:09:00,
2013-04-27 06:24:00,44.6,42.0,30.17,South,186,0.0,-999.0,90,-99.99,,,0.00,weatherlink.com 1.10,2013-04-27 13:24:00,
2013-04-27 06:39:00,44.9,42.0,30.17,South,186,0.0,-999.0,90,-99.99,,,0.00,weatherlink.com 1.10,2013-04-27 13:39:00,
2013-04-27 06:54:00,45.4,43.0,30.17,NNE,31,0.0,-999.0,90,-99.99,,,0.00,weatherlink.com 1.10,2013-04-27 13:54:00,
2013-04-27 07:10:00,45.8,43.0,30.17,NNE,31,0.0,-999.0,89,-99.99,,,0.00,weatherlink.com 1.10,2013-04-27 14:10:00,
2013-04-27 07:25:00,46.6,43.0,30.17,NNE,31,0.0,-999.0,88,-99.99,,,0.00,weatherlink.com 1.10,2013-04-27 14:25:00,
2013-04-27 07:40:00,46.9,43.0,30.16,NE,49,0.0,-999.0,87,-99.99,,,0.00,weatherlink.com 1.10,2013-04-27 14:40:00,
2013-04-27 07:55:00,47.5,44.0,30.16,NE,49,0.0,-999.0,86,-99.99,,,0.00,weatherlink.com 1.10,2013-04-27 14:55:00,
2013-04-27 08:10:00,48.3,44.0,30.16,NE,49,0.0,-999.0,85,-99.99,,,0.00,weatherlink.com 1.10,2013-04-27 15:10:00,
2013-04-27 08:25:00,49.2,45.0,30.17,NE,49,0.0,-999.0,84,-99.99,,,0.00,weatherlink.com 1.10,2013-04-27 15:25:00,
2013-04-27 08:40:00,50.6,45.0,30.16,NE,49,0.0,-999.0,80,-99.99,,,0.00,weatherlink.com 1.10,2013-04-27 15:40:00,
2013-04-27 08:55:00,51.9,45.0,30.16,NE,49,0.0,-999.0,76,-99.99,,,0.00,weatherlink.com 1.10,2013-04-27 15:55:00,
2013-04-27 09:10:00,52.4,45.0,30.15,NE,50,0.0,-999.0,75,-99.99,,,0.00,weatherlink.com 1.10,2013-04-27 16:10:00,
2013-04-27 09:25:00,53.4,45.0,30.14,NE,50,0.0,-999.0,73,-99.99,,,0.00,weatherlink.com 1.10,2013-04-27 16:25:00,
2013-04-27 09:40:00,54.3,45.0,30.14,NE,50,0.0,-999.0,70,-99.99,,,0.00,weatherlink.com 1.10,2013-04-27 16:40:00,
2013-04-27 09:55:00,55.3,46.0,30.14,NE,50,0.0,-999.0,70,-99.99,,,0.00,weatherlink.com 1.10,2013-04-27 16:55:00,
2013-04-27 10:10:00,55.9,45.0,30.14,NE,50,1.0,-999.0,68,-99.99,,,0.00,weatherlink.com 1.10,2013-04-27 17:10:00,
2013-04-27 10:25:00,57.3,46.0,30.14,NE,50,0.0,-999.0,67,-99.99,,,0.00,weatherlink.com 1.10,2013-04-27 17:25:00,
2013-04-27 10:40:00,58.0,46.0,30.14,ESE,104,0.0,-999.0,65,-99.99,,,0.00,weatherlink.com 1.10,2013-04-27 17:40:00,
2013-04-27 10:55:00,59.8,47.0,30.13,ESE,103,0.0,-999.0,62,-99.99,,,0.00,weatherlink.com 1.10,2013-04-27 17:55:00,
2013-04-27 11:10:00,60.4,46.0,30.12,SSE,153,0.0,-999.0,60,-99.99,,,0.00,weatherlink.com 1.10,2013-04-27 18:10:00,
2013-04-27 11:25:00,61.7,47.0,30.11,South,176,0.0,-999.0,58,-99.99,,,0.00,weatherlink.com 1.10,2013-04-27 18:25:00,
2013-04-27 11:40:00,62.0,46.0,30.11,SSW,199,0.0,-999.0,56,-99.99,,,0.00,weatherlink.com 1.10,2013-04-27 18:40:00,
2013-04-27 11:55:00,61.9,47.0,30.09,South,180,0.0,-999.0,58,-99.99,,,0.00,weatherlink.com 1.10,2013-04-27 18:55:00,
2013-04-27 12:10:00,63.1,46.0,30.09,East,97,0.0,-999.0,55,-99.99,,,0.00,weatherlink.com 1.10,2013-04-27 19:10:00,
2013-04-27 12:25:00,63.5,46.0,30.08,ESE,112,2.0,-999.0,54,-99.99,,,0.00,weatherlink.com 1.10,2013-04-27 19:25:00,
2013-04-27 12:40:00,63.8,47.0,30.07,East,94,0.0,-999.0,54,-99.99,,,0.00,weatherlink.com 1.10,2013-04-27 19:40:00,
2013-04-27 12:55:00,64.2,47.0,30.06,ESE,105,1.0,-999.0,54,-99.99,,,0.00,weatherlink.com 1.10,2013-04-27 19:55:00,
2013-04-27 13:10:00,64.6,47.0,30.06,ESE,112,1.0,-999.0,54,-99.99,,,0.00,weatherlink.com 1.10,2013-04-27 20:10:00,
2013-04-27 13:25:00,64.0,48.0,30.05,SE,136,1.0,-999.0,56,-99.99,,,0.00,weatherlink.com 1.10,2013-04-27 20:25:00,
2013-04-27 13:40:00,64.3,48.0,30.05,SE,139,1.0,-999.0,56,-99.99,,,0.00,weatherlink.com 1.10,2013-04-27 20:40:00,
2013-04-27 13:55:00,65.0,48.0,30.05,SSE,168,0.0,-999.0,55,-99.99,,,0.00,weatherlink.com 1.10,2013-04-27 20:55:00,
2013-04-27 14:10:00,65.9,48.0,30.04,South,172,2.0,-999.0,53,-99.99,,,0.00,weatherlink.com 1.10,2013-04-27 21:10:00,
2013-04-27 14:25:00,66.5,49.0,30.03,South,172,0.0,-999.0,53,-99.99,,,0.00,weatherlink.com 1.10,2013-04-27 21:25:00,
2013-04-27 14:40:00,66.8,49.0,30.03,South,172,0.0,-999.0,53,-99.99,,,0.00,weatherlink.com 1.10,2013-04-27 21:40:00,
2013-04-27 14:55:00,67.4,49.0,30.03,South,172,1.0,-999.0,52,-99.99,,,0.00,weatherlink.com 1.10,2013-04-27 21:55:00,
2013-04-27 15:10:00,67.9,49.0,30.02,South,172,1.0,-999.0,52,-99.99,,,0.00,weatherlink.com 1.10,2013-04-27 22:10:00,
2013-04-27 15:25:00,69.1,50.0,30.01,South,177,1.0,-999.0,51,-99.99,,,0.00,weatherlink.com 1.10,2013-04-27 22:25:00,
2013-04-27 15:40:00,69.3,49.0,30.01,South,177,0.0,-999.0,49,-99.99,,,0.00,weatherlink.com 1.10,2013-04-27 22:40:00,
2013-04-27 15:55:00,69.4,49.0,30.00,South,177,0.0,-999.0,48,-99.99,,,0.00,weatherlink.com 1.10,2013-04-27 22:55:00,
2013-04-27 16:10:00,69.3,49.0,30.01,South,177,0.0,-999.0,49,-99.99,,,0.00,weatherlink.com 1.10,2013-04-27 23:10:00,
2013-04-27 16:25:00,69.1,49.0,30.00,South,177,0.0,-999.0,49,-99.99,,,0.00,weatherlink.com 1.10,2013-04-27 23:25:00,
2013-04-27 16:40:00,68.8,51.0,30.01,South,177,0.0,-999.0,54,-99.99,,,0.00,weatherlink.com 1.10,2013-04-27 23:40:00,
2013-04-27 16:55:00,68.4,51.0,30.01,South,177,1.0,-999.0,55,-99.99,,,0.00,weatherlink.com 1.10,2013-04-27 23:55:00,
2013-04-27 17:10:00,69.0,41.0,30.01,East,90,1.0,-999.0,36,-99.99,,,0.00,weatherlink.com 1.10,2013-04-28 00:10:00,
2013-04-27 17:25:00,70.1,44.0,30.01,NNE,14,0.0,-999.0,39,-99.99,,,0.00,weatherlink.com 1.10,2013-04-28 00:25:00,
2013-04-27 17:40:00,69.5,39.0,30.02,South,182,3.0,-999.0,33,-99.99,,,0.00,weatherlink.com 1.10,2013-04-28 00:40:00,
2013-04-27 17:55:00,69.6,42.0,30.02,NE,37,0.0,-999.0,37,-99.99,,,0.00,weatherlink.com 1.10,2013-04-28 00:55:00,
2013-04-27 18:10:00,67.9,44.0,30.02,South,175,4.0,-999.0,43,-99.99,,,0.00,weatherlink.com 1.10,2013-04-28 01:10:00,
2013-04-27 18:25:00,65.5,46.0,30.02,South,186,2.0,-999.0,50,-99.99,,,0.00,weatherlink.com 1.10,2013-04-28 01:25:00,
2013-04-27 18:40:00,64.4,45.0,30.01,SE,130,1.0,-999.0,50,-99.99,,,0.00,weatherlink.com 1.10,2013-04-28 01:40:00,
2013-04-27 18:55:00,65.6,38.0,30.02,SW,226,5.0,-999.0,37,-99.99,,,0.00,weatherlink.com 1.10,2013-04-28 01:55:00,
2013-04-27 19:10:00,66.1,43.0,30.01,SW,216,0.0,-999.0,44,-99.99,,,0.00,weatherlink.com 1.10,2013-04-28 02:10:00,
2013-04-27 19:25:00,63.9,48.0,30.00,SW,216,0.0,-999.0,56,-99.99,,,0.00,weatherlink.com 1.10,2013-04-28 02:25:00,
2013-04-27 19:40:00,62.4,48.0,30.01,ENE,67,0.0,-999.0,60,-99.99,,,0.00,weatherlink.com 1.10,2013-04-28 02:40:00,
2013-04-27 19:55:00,61.7,47.0,30.01,ENE,67,0.0,-999.0,59,-99.99,,,0.00,weatherlink.com 1.10,2013-04-28 02:55:00,
2013-04-27 20:10:00,61.4,46.0,30.02,ESE,103,0.0,-999.0,58,-99.99,,,0.00,weatherlink.com 1.10,2013-04-28 03:10:00,
2013-04-27 20:25:00,61.1,46.0,30.03,WSW,239,2.0,-999.0,59,-99.99,,,0.00,weatherlink.com 1.10,2013-04-28 03:25:00,
2013-04-27 20:40:00,61.8,46.0,30.03,East,92,2.0,-999.0,57,-99.99,,,0.00,weatherlink.com 1.10,2013-04-28 03:40:00,
2013-04-27 20:55:00,60.5,44.0,30.04,SE,124,4.0,-999.0,55,-99.99,,,0.00,weatherlink.com 1.10,2013-04-28 03:55:00,
2013-04-27 21:10:00,60.4,43.0,30.04,NE,50,3.0,-999.0,53,-99.99,,,0.00,weatherlink.com 1.10,2013-04-28 04:10:00,
2013-04-27 21:41:00,66.1,38.0,30.06,SSW,196,4.0,-999.0,36,-99.99,,,0.00,weatherlink.com 1.10,2013-04-28 04:41:00,
2013-04-27 21:56:00,65.0,41.0,30.06,WSW,244,2.0,-999.0,41,-99.99,,,0.00,weatherlink.com 1.10,2013-04-28 04:56:00,
2013-04-27 22:11:00,63.9,41.0,30.06,West,277,3.0,-999.0,44,-99.99,,,0.00,weatherlink.com 1.10,2013-04-28 05:11:00,
2013-04-27 22:26:00,63.5,42.0,30.05,SSW,207,0.0,-999.0,46,-99.99,,,0.00,weatherlink.com 1.10,2013-04-28 05:26:00,
2013-04-27 22:41:00,62.0,44.0,30.04,SSW,207,2.0,-999.0,52,-99.99,,,0.00,weatherlink.com 1.10,2013-04-28 05:41:00,
2013-04-27 22:56:00,60.3,44.0,30.04,SSW,207,0.0,-999.0,56,-99.99,,,0.00,weatherlink.com 1.10,2013-04-28 05:56:00,
2013-04-27 23:11:00,59.6,45.0,30.04,SSW,207,0.0,-999.0,60,-99.99,,,0.00,weatherlink.com 1.10,2013-04-28 06:11:00,
2013-04-27 23:26:00,59.3,46.0,30.04,SSW,207,0.0,-999.0,61,-99.99,,,0.00,weatherlink.com 1.10,2013-04-28 06:26:00,
2013-04-27 23:41:00,59.1,45.0,30.04,SSW,207,2.0,-999.0,60,-99.99,,,0.00,weatherlink.com 1.10,2013-04-28 06:41:00,
2013-04-27 23:56:00,58.4,46.0,30.04,SSW,207,0.0,-999.0,63,-99.99,,,0.00,weatherlink.com 1.10,2013-04-28 06:56:00,